createdAt,value
2023-01-03T00:00:29.300Z,1.73
2023-01-03T00:01:29.236Z,1.42
2023-01-03T00:02:29.265Z,1.21
2023-01-03T00:03:29.171Z,1.60
2023-01-03T00:04:29.171Z,1.72
2023-01-03T00:05:29.094Z,1.58
2023-01-03T00:06:29.062Z,1.08
2023-01-03T00:07:29.031Z,1.70
2023-01-03T00:08:29.009Z,1.78
2023-01-03T00:09:28.949Z,1.36
2023-01-03T00:10:28.937Z,1.30
2023-01-03T00:11:28.884Z,1.83
2023-01-03T00:12:31.357Z,1.87
2023-01-03T00:13:29.036Z,1.70
2023-01-03T00:14:29.001Z,1.67
2023-01-03T00:15:28.922Z,1.51
2023-01-03T00:16:28.937Z,1.47
2023-01-03T00:17:28.871Z,1.32
2023-01-03T00:18:28.832Z,1.55
2023-01-03T00:19:28.844Z,1.83
2023-01-03T00:20:28.785Z,1.10
2023-01-03T00:21:28.827Z,1.90
2023-01-03T00:22:28.816Z,1.51
2023-01-03T00:23:28.877Z,1.84
2023-01-03T00:24:28.864Z,1.47
2023-01-03T00:28:28.965Z,1.24
2023-01-03T00:30:29.041Z,1.53
2023-01-03T00:31:29.066Z,1.63
2023-01-03T00:32:29.057Z,1.80
2023-01-03T00:33:29.127Z,1.81
2023-01-03T00:34:29.105Z,1.49
2023-01-03T00:35:29.091Z,1.61
2023-01-03T00:36:29.144Z,1.51
2023-01-03T00:37:29.149Z,1.37
2023-01-03T00:38:29.189Z,1.52
2023-01-03T00:39:29.181Z,1.50
2023-01-03T00:40:29.187Z,1.65
2023-01-03T00:41:29.225Z,1.84
2023-01-03T00:42:29.222Z,1.55
2023-01-03T00:43:29.231Z,1.43
2023-01-03T00:44:29.244Z,1.63
2023-01-03T00:45:35.029Z,1.39
2023-01-03T00:46:30.307Z,1.37
2023-01-03T00:47:29.244Z,1.00
2023-01-03T00:48:29.168Z,1.00
2023-01-03T00:49:29.104Z,1.40
2023-01-03T00:50:29.092Z,1.10
2023-01-03T00:51:29.039Z,1.41
2023-01-03T00:52:29.007Z,1.46
2023-01-03T00:53:28.965Z,1.74
2023-01-03T00:54:28.939Z,1.55
2023-01-03T00:55:28.887Z,1.38
2023-01-03T00:56:28.874Z,1.59
2023-01-03T00:57:28.817Z,1.28
2023-01-03T00:58:28.755Z,1.76
2023-01-03T00:59:28.720Z,1.92
2023-01-03T01:00:28.693Z,1.32
2023-01-03T01:01:28.737Z,1.25
2023-01-03T01:02:28.873Z,1.48
2023-01-03T01:03:28.836Z,1.42
2023-01-03T01:04:28.609Z,1.69
2023-01-03T01:05:28.514Z,1.97
2023-01-03T01:06:28.486Z,1.51
2023-01-03T01:07:28.445Z,1.50
2023-01-03T01:08:28.399Z,1.64
2023-01-03T01:09:28.373Z,1.75
2023-01-03T01:10:28.320Z,1.07
2023-01-03T01:11:28.285Z,1.61
2023-01-03T01:12:28.247Z,1.51
2023-01-03T01:13:28.189Z,1.49
2023-01-03T01:14:28.158Z,1.76
2023-01-03T01:15:28.113Z,1.19
2023-01-03T01:16:28.146Z,1.64
2023-01-03T01:17:28.072Z,1.40
2023-01-03T01:18:27.998Z,1.73
2023-01-03T01:19:27.957Z,1.64
2023-01-03T01:20:27.926Z,1.43
2023-01-03T01:21:27.908Z,1.44
2023-01-03T01:22:27.849Z,1.96
2023-01-03T01:23:27.835Z,1.46
2023-01-03T01:24:27.772Z,1.59
2023-01-03T01:25:27.733Z,1.65
2023-01-03T01:26:27.699Z,1.42
2023-01-03T01:27:27.653Z,1.50
2023-01-03T01:28:27.948Z,1.45
2023-01-03T01:29:27.555Z,1.67
2023-01-03T01:30:27.511Z,1.32
2023-01-03T01:31:27.550Z,1.69
2023-01-03T01:32:27.432Z,1.71
2023-01-03T01:33:27.404Z,1.57
2023-01-03T01:34:27.376Z,1.73
2023-01-03T01:35:27.348Z,1.24
2023-01-03T01:36:27.283Z,1.76
2023-01-03T01:37:27.236Z,1.44
2023-01-03T01:38:27.221Z,1.51
2023-01-03T01:39:27.958Z,1.68
2023-01-03T01:40:27.138Z,1.62
2023-01-03T01:41:27.072Z,1.52
2023-01-03T01:42:30.501Z,1.24
2023-01-03T01:43:27.023Z,1.60
2023-01-03T01:44:26.974Z,1.52
2023-01-03T01:45:26.941Z,1.56
2023-01-03T01:46:26.981Z,1.53
2023-01-03T01:47:26.888Z,1.46
2023-01-03T01:48:26.846Z,1.25
2023-01-03T01:49:26.823Z,1.35
2023-01-03T01:50:26.755Z,1.38
2023-01-03T01:51:26.747Z,1.24
2023-01-03T01:52:26.702Z,1.46
2023-01-03T01:53:26.675Z,1.58
2023-01-03T01:54:26.611Z,1.65
2023-01-03T01:55:26.607Z,1.73
2023-01-03T01:56:26.544Z,1.32
2023-01-03T01:57:26.516Z,1.34
2023-01-03T01:58:26.472Z,1.44
2023-01-03T01:59:26.433Z,1.64
2023-01-03T02:00:26.386Z,1.31
2023-01-03T02:01:26.558Z,1.22
2023-01-03T02:02:26.403Z,1.60
2023-01-03T02:03:26.324Z,1.30
2023-01-03T02:04:26.244Z,0.89
2023-01-03T02:05:26.176Z,1.33
2023-01-03T02:06:26.136Z,1.35
2023-01-03T02:07:26.104Z,1.48
2023-01-03T02:08:26.064Z,1.73
2023-01-03T02:09:26.143Z,1.74
2023-01-03T02:10:25.963Z,1.37
2023-01-03T02:11:25.931Z,1.80
2023-01-03T02:12:25.897Z,1.23
2023-01-03T02:13:25.971Z,1.93
2023-01-03T02:14:25.807Z,1.68
2023-01-03T02:15:25.766Z,1.44
2023-01-03T02:16:25.814Z,1.26
2023-01-03T02:17:25.704Z,1.54
2023-01-03T02:18:25.669Z,1.80
2023-01-03T02:19:25.607Z,1.56
2023-01-03T02:20:25.573Z,1.55
2023-01-03T02:21:25.516Z,1.39
2023-01-03T02:22:25.493Z,1.07
2023-01-03T02:23:25.470Z,1.45
2023-01-03T02:24:25.396Z,1.51
2023-01-03T02:26:25.316Z,1.38
2023-01-03T02:27:25.279Z,1.50
2023-01-03T02:28:25.217Z,1.35
2023-01-03T02:29:25.197Z,1.22
2023-01-03T02:30:25.167Z,1.14
2023-01-03T02:31:25.217Z,1.65
2023-01-03T02:32:25.064Z,1.51
2023-01-03T02:33:25.020Z,1.38
2023-01-03T02:34:25.985Z,1.38
2023-01-03T02:35:24.961Z,1.34
2023-01-03T02:36:24.890Z,1.39
2023-01-03T02:37:24.832Z,1.89
2023-01-03T02:38:24.799Z,1.23
2023-01-03T02:39:25.007Z,1.23
2023-01-03T02:40:24.718Z,1.30
2023-01-03T02:41:24.671Z,1.46
2023-01-03T02:42:24.624Z,1.69
2023-01-03T02:43:24.584Z,1.18
2023-01-03T02:44:24.554Z,1.17
2023-01-03T02:45:24.512Z,1.32
2023-01-03T02:46:24.553Z,1.32
2023-01-03T02:47:24.438Z,1.55
2023-01-03T02:48:24.395Z,1.68
2023-01-03T02:49:24.371Z,1.33
2023-01-03T02:50:24.341Z,1.53
2023-01-03T02:51:24.317Z,1.56
2023-01-03T02:52:24.274Z,1.33
2023-01-03T02:53:24.301Z,1.40
2023-01-03T02:54:24.253Z,1.38
2023-01-03T02:55:24.186Z,1.63
2023-01-03T02:56:24.142Z,1.36
2023-01-03T02:57:24.117Z,1.05
2023-01-03T02:58:24.052Z,1.25
2023-01-03T02:59:24.520Z,1.55
2023-01-03T03:00:24.015Z,1.43
2023-01-03T03:01:24.033Z,1.16
2023-01-03T03:02:24.042Z,1.27
2023-01-03T03:03:23.886Z,1.29
2023-01-03T03:04:23.980Z,1.24
2023-01-03T03:05:23.781Z,1.06
2023-01-03T03:06:24.472Z,1.43
2023-01-03T03:07:23.710Z,1.27
2023-01-03T03:08:23.660Z,1.33
2023-01-03T03:09:23.664Z,1.32
2023-01-03T03:10:23.607Z,1.29
2023-01-03T03:11:23.585Z,1.51
2023-01-03T03:12:23.536Z,1.22
2023-01-03T03:13:23.483Z,1.40
2023-01-03T03:14:23.457Z,1.58
2023-01-03T03:15:23.415Z,1.27
2023-01-03T03:16:23.407Z,1.28
2023-01-03T03:17:23.348Z,1.53
2023-01-03T03:18:23.324Z,1.53
2023-01-03T03:19:23.283Z,1.58
2023-01-03T03:20:23.228Z,1.37
2023-01-03T03:21:23.196Z,1.00
2023-01-03T03:22:23.169Z,1.44
2023-01-03T03:23:23.140Z,1.16
2023-01-03T03:24:23.121Z,1.21
2023-01-03T03:25:23.065Z,1.41
2023-01-03T03:26:23.055Z,1.24
2023-01-03T03:27:22.996Z,1.20
2023-01-03T03:28:22.966Z,1.21
2023-01-03T03:29:22.931Z,1.44
2023-01-03T03:30:22.898Z,1.43
2023-01-03T03:31:23.020Z,1.18
2023-01-03T03:32:22.834Z,1.32
2023-01-03T03:33:22.795Z,1.39
2023-01-03T03:34:22.759Z,1.07
2023-01-03T03:35:22.764Z,1.20
2023-01-03T03:36:22.674Z,1.33
2023-01-03T03:37:22.657Z,1.17
2023-01-03T03:38:22.605Z,1.16
2023-01-03T03:39:22.571Z,1.53
2023-01-03T03:40:22.593Z,1.56
2023-01-03T03:41:22.520Z,1.25
2023-01-03T03:42:22.477Z,1.26
2023-01-03T03:43:22.450Z,1.47
2023-01-03T03:44:22.441Z,1.23
2023-01-03T03:45:22.405Z,1.20
2023-01-03T03:46:22.351Z,1.38
2023-01-03T03:47:22.342Z,1.22
2023-01-03T03:48:22.277Z,1.30
2023-01-03T03:49:22.227Z,1.45
2023-01-03T03:50:22.228Z,1.28
2023-01-03T03:51:22.165Z,1.14
2023-01-03T03:52:22.153Z,1.16
2023-01-03T03:53:22.105Z,1.27
2023-01-03T03:54:22.067Z,1.44
2023-01-03T03:55:22.037Z,2.02
2023-01-03T03:56:21.982Z,1.17
2023-01-03T03:57:21.964Z,1.31
2023-01-03T03:58:21.937Z,1.73
2023-01-03T03:59:21.891Z,1.62
2023-01-03T04:00:21.862Z,1.45
2023-01-03T04:01:21.867Z,1.77
2023-01-03T04:02:21.929Z,1.20
2023-01-03T04:03:21.776Z,1.48
2023-01-03T04:04:21.696Z,1.30
2023-01-03T04:05:21.671Z,1.29
2023-01-03T04:06:21.624Z,1.24
2023-01-03T04:07:21.589Z,1.34
2023-01-03T04:08:21.554Z,1.21
2023-01-03T04:09:21.538Z,0.95
2023-01-03T04:10:21.481Z,1.31
2023-01-03T04:11:21.438Z,1.48
2023-01-03T04:12:21.404Z,1.28
2023-01-03T04:13:21.364Z,1.41
2023-01-03T04:14:21.334Z,1.36
2023-01-03T04:15:21.299Z,1.43
2023-01-03T04:16:21.342Z,1.41
2023-01-03T04:17:21.232Z,1.08
2023-01-03T04:18:21.173Z,1.69
2023-01-03T04:19:21.155Z,1.16
2023-01-03T04:20:21.098Z,1.18
2023-01-03T04:21:21.321Z,1.58
2023-01-03T04:22:21.001Z,1.26
2023-01-03T04:23:20.971Z,1.41
2023-01-03T04:24:20.937Z,1.38
2023-01-03T04:25:20.909Z,1.05
2023-01-03T04:26:20.848Z,1.02
2023-01-03T04:27:20.840Z,1.33
2023-01-03T04:28:20.805Z,0.94
2023-01-03T04:29:20.752Z,1.06
2023-01-03T04:30:20.737Z,1.49
2023-01-03T04:31:20.694Z,1.21
2023-01-03T04:32:20.673Z,1.35
2023-01-03T04:33:20.612Z,1.23
2023-01-03T04:34:20.563Z,1.51
2023-01-03T04:35:20.530Z,1.31
2023-01-03T04:36:21.013Z,1.29
2023-01-03T04:37:20.462Z,1.28
2023-01-03T04:38:20.443Z,1.03
2023-01-03T04:39:20.387Z,1.19
2023-01-03T04:40:20.354Z,1.40
2023-01-03T04:41:20.346Z,1.37
2023-01-03T04:42:20.269Z,1.19
2023-01-03T04:43:20.266Z,1.52
2023-01-03T04:44:20.228Z,1.21
2023-01-03T04:45:20.197Z,1.22
2023-01-03T04:46:20.240Z,1.20
2023-01-03T04:47:20.124Z,1.29
2023-01-03T04:48:20.128Z,1.14
2023-01-03T04:49:20.056Z,1.03
2023-01-03T04:50:20.030Z,1.38
2023-01-03T04:51:20.009Z,1.41
2023-01-03T04:52:19.963Z,1.04
2023-01-03T04:53:20.512Z,1.38
2023-01-03T04:54:19.967Z,1.13
2023-01-03T04:55:19.938Z,0.78
2023-01-03T04:56:19.913Z,1.13
2023-01-03T04:57:19.883Z,0.93
2023-01-03T04:58:19.941Z,1.15
2023-01-03T04:59:19.817Z,1.59
2023-01-03T05:00:19.776Z,1.13
2023-01-03T05:01:19.888Z,1.23
2023-01-03T05:02:19.922Z,1.37
2023-01-03T05:03:25.737Z,1.06
2023-01-03T05:04:20.775Z,1.10
2023-01-03T05:05:19.636Z,1.25
2023-01-03T05:06:19.614Z,1.08
2023-01-03T05:07:19.535Z,1.07
2023-01-03T05:08:19.513Z,1.35
2023-01-03T05:09:19.496Z,1.00
2023-01-03T05:10:19.462Z,1.41
2023-01-03T05:11:19.450Z,1.35
2023-01-03T05:12:19.405Z,1.28
2023-01-03T05:13:19.389Z,1.60
2023-01-03T05:14:19.336Z,1.52
2023-01-03T05:15:19.302Z,1.27
2023-01-03T05:16:19.340Z,1.27
2023-01-03T05:17:19.254Z,1.00
2023-01-03T05:18:19.223Z,0.99
2023-01-03T05:19:19.205Z,1.04
2023-01-03T05:20:19.180Z,1.41
2023-01-03T05:21:19.129Z,0.93
2023-01-03T05:22:19.137Z,1.13
2023-01-03T05:23:19.100Z,1.08
2023-01-03T05:24:19.036Z,1.16
2023-01-03T05:25:19.005Z,0.99
2023-01-03T05:26:18.974Z,1.12
2023-01-03T05:46:19.066Z,1.02
2023-01-03T07:57:14.761Z,1.03
2023-01-03T07:58:14.735Z,0.83
2023-01-03T07:59:14.716Z,1.07
2023-01-03T08:00:14.706Z,1.12
2023-01-03T08:01:14.859Z,1.03
2023-01-03T08:02:14.836Z,1.34
2023-01-03T08:03:14.818Z,0.97
2023-01-03T08:04:14.835Z,1.09
2023-01-03T08:05:14.940Z,1.17
2023-01-03T08:06:14.840Z,1.15
2023-01-03T08:07:14.854Z,1.12
2023-01-03T08:08:14.863Z,1.05
2023-01-03T08:09:14.904Z,1.05
2023-01-03T08:10:14.986Z,1.27
2023-01-03T08:11:14.948Z,0.92
2023-01-03T08:12:14.956Z,1.21
2023-01-03T08:13:14.997Z,1.33
2023-01-03T08:14:17.148Z,1.02
2023-01-03T08:15:14.946Z,1.24
2023-01-03T08:16:15.006Z,1.05
2023-01-03T08:17:14.902Z,1.12
2023-01-03T08:18:14.825Z,1.20
2023-01-03T08:19:14.818Z,0.77
2023-01-03T08:20:14.746Z,1.15
2023-01-03T08:21:14.691Z,1.26
2023-01-03T08:22:14.659Z,1.12
2023-01-03T08:23:14.612Z,1.09
2023-01-03T08:24:14.567Z,1.38
2023-01-03T08:25:14.518Z,0.84
2023-01-03T08:26:14.478Z,1.14
2023-01-03T08:27:14.441Z,1.39
2023-01-03T08:28:14.436Z,1.11
2023-01-03T08:29:14.375Z,1.23
2023-01-03T08:30:14.353Z,0.93
2023-01-03T08:31:14.378Z,0.89
2023-01-03T08:32:14.309Z,1.06
2023-01-03T08:33:14.225Z,0.89
2023-01-03T08:34:19.647Z,1.33
2023-01-03T08:35:15.166Z,1.09
2023-01-03T08:36:14.116Z,1.01
2023-01-03T08:37:14.084Z,1.09
2023-01-03T08:38:14.021Z,0.92
2023-01-03T08:39:14.010Z,1.17
2023-01-03T08:40:13.992Z,1.09
2023-01-03T08:41:13.917Z,1.44
2023-01-03T08:42:13.890Z,1.16
2023-01-03T08:43:13.822Z,1.26
2023-01-03T08:44:13.788Z,0.88
2023-01-03T08:45:13.797Z,0.98
2023-01-03T08:46:13.715Z,0.95
2023-01-03T08:47:13.710Z,0.89
2023-01-03T08:48:13.621Z,0.89
2023-01-03T08:49:13.579Z,1.30
2023-01-03T08:50:13.544Z,0.98
2023-01-03T08:51:13.499Z,0.75
2023-01-03T08:52:13.460Z,1.24
2023-01-03T08:53:13.400Z,1.10
2023-01-03T08:54:13.389Z,1.09
2023-01-03T08:55:13.375Z,1.14
2023-01-03T08:56:13.302Z,1.04
2023-01-03T08:57:13.261Z,1.11
2023-01-03T08:58:13.230Z,1.11
2023-01-03T08:59:13.177Z,1.13
2023-01-03T09:00:13.166Z,1.08
2023-01-03T09:01:13.169Z,1.15
2023-01-03T09:02:13.275Z,2.95
2023-01-03T09:03:13.297Z,1.13
2023-01-03T09:04:13.081Z,1.37
2023-01-03T09:05:12.973Z,1.00
2023-01-03T09:06:12.933Z,1.49
2023-01-03T09:07:12.883Z,1.26
2023-01-03T09:08:12.880Z,1.25
2023-01-03T09:09:12.853Z,1.61
2023-01-03T09:10:12.769Z,1.46
2023-01-03T09:11:12.756Z,1.46
2023-01-03T09:12:12.708Z,1.64
2023-01-03T09:13:12.677Z,2.90
2023-01-03T09:14:12.656Z,1.68
2023-01-03T09:15:12.626Z,1.67
2023-01-03T09:16:12.632Z,1.89
2023-01-03T09:17:12.534Z,1.78
2023-01-03T09:18:12.511Z,1.47
2023-01-03T09:19:12.555Z,2.31
2023-01-03T09:20:12.429Z,2.82
2023-01-03T09:21:12.390Z,3.46
2023-01-03T09:22:12.353Z,2.90
2023-01-03T09:23:12.319Z,3.78
2023-01-03T09:24:12.285Z,3.48
2023-01-03T09:25:12.281Z,4.18
2023-01-03T09:26:12.194Z,3.18
2023-01-03T09:27:12.193Z,3.57
2023-01-03T09:28:13.111Z,3.44
2023-01-03T09:29:12.097Z,5.33
2023-01-03T09:30:12.062Z,4.10
2023-01-03T09:31:12.113Z,6.25
2023-01-03T09:32:12.067Z,5.44
2023-01-03T09:33:11.948Z,5.40
2023-01-03T09:34:11.899Z,4.26
2023-01-03T09:35:11.872Z,5.84
2023-01-03T09:36:11.835Z,5.88
2023-01-03T09:37:11.803Z,4.85
2023-01-03T09:38:11.788Z,5.73
2023-01-03T09:39:11.709Z,6.29
2023-01-03T09:40:11.674Z,6.40
2023-01-03T09:41:11.651Z,4.90
2023-01-03T09:42:11.595Z,6.99
2023-01-03T09:43:11.586Z,5.55
2023-01-03T09:44:11.568Z,5.26
2023-01-03T09:45:11.508Z,6.17
2023-01-03T09:46:11.469Z,5.13
2023-01-03T09:47:11.532Z,5.19
2023-01-03T09:48:11.400Z,5.02
2023-01-03T09:49:11.360Z,5.67
2023-01-03T09:50:29.459Z,6.07
2023-01-03T09:51:21.045Z,4.54
2023-01-03T09:52:12.234Z,4.67
2023-01-03T09:53:11.208Z,5.40
2023-01-03T09:54:11.186Z,4.93
2023-01-03T09:55:11.144Z,5.68
2023-01-03T09:56:11.083Z,4.88
2023-01-03T09:57:11.038Z,4.69
2023-01-03T09:58:11.018Z,4.28
2023-01-03T09:59:10.966Z,3.78
2023-01-03T10:00:10.921Z,3.60
2023-01-03T10:01:10.971Z,3.51
2023-01-03T10:02:11.053Z,3.72
2023-01-03T10:03:10.836Z,4.30
2023-01-03T10:04:10.783Z,3.33
2023-01-03T10:05:10.724Z,3.78
2023-01-03T10:06:10.693Z,4.35
2023-01-03T10:07:10.685Z,3.21
2023-01-03T10:08:10.629Z,4.12
2023-01-03T10:09:10.578Z,4.24
2023-01-03T10:10:14.229Z,3.87
2023-01-03T10:11:10.526Z,3.83
2023-01-03T10:12:10.464Z,3.34
2023-01-03T10:13:14.687Z,3.54
2023-01-03T10:14:11.398Z,3.38
2023-01-03T10:15:10.359Z,3.88
2023-01-03T10:16:10.372Z,3.57
2023-01-03T10:17:10.266Z,3.70
2023-01-03T10:18:10.228Z,3.44
2023-01-03T10:19:10.187Z,3.76
2023-01-03T10:20:10.159Z,3.43
2023-01-03T10:21:10.142Z,3.17
2023-01-03T10:22:10.108Z,3.11
2023-01-03T10:23:10.068Z,3.34
2023-01-03T10:24:09.994Z,3.78
2023-01-03T10:25:09.962Z,3.48
2023-01-03T10:26:10.634Z,3.51
2023-01-03T10:27:09.881Z,3.31
2023-01-03T10:28:09.860Z,3.23
2023-01-03T10:29:09.795Z,3.43
2023-01-03T10:30:09.743Z,3.41
2023-01-03T10:31:09.718Z,3.36
2023-01-03T10:32:09.716Z,4.16
2023-01-03T10:33:09.642Z,3.44
2023-01-03T10:34:09.580Z,4.23
2023-01-03T10:35:09.572Z,3.72
2023-01-03T10:36:09.559Z,3.04
2023-01-03T10:37:09.470Z,3.38
2023-01-03T10:38:09.433Z,3.26
2023-01-03T10:39:10.150Z,3.56
2023-01-03T10:40:09.348Z,3.33
2023-01-03T10:41:09.317Z,2.88
2023-01-03T10:42:09.274Z,3.18
2023-01-03T10:43:09.240Z,2.96
2023-01-03T10:44:09.204Z,3.59
2023-01-03T10:45:09.170Z,2.92
2023-01-03T10:46:09.140Z,3.74
2023-01-03T10:47:09.075Z,3.51
2023-01-03T10:48:09.051Z,3.61
2023-01-03T10:50:09.940Z,2.90
2023-01-03T10:51:08.899Z,2.96
2023-01-03T10:52:08.860Z,2.82
2023-01-03T10:53:08.845Z,3.54
2023-01-03T10:54:08.788Z,3.68
2023-01-03T10:55:08.754Z,3.03
2023-01-03T10:56:08.724Z,3.15
2023-01-03T10:57:08.657Z,2.79
2023-01-03T10:58:08.648Z,3.27
2023-01-03T10:59:08.583Z,3.22
2023-01-03T11:00:08.557Z,3.44
2023-01-03T11:01:08.554Z,3.16
2023-01-03T11:02:08.699Z,3.23
2023-01-03T11:03:08.481Z,3.02
2023-01-03T11:04:08.360Z,3.06
2023-01-03T11:05:08.336Z,3.07
2023-01-03T11:06:08.276Z,2.94
2023-01-03T11:07:08.260Z,3.30
2023-01-03T11:08:08.190Z,2.82
2023-01-03T11:09:08.159Z,3.35
2023-01-03T11:10:08.128Z,3.25
2023-01-03T11:11:08.073Z,3.11
2023-01-03T11:12:08.040Z,3.02
2023-01-03T11:13:08.025Z,3.00
2023-01-03T11:14:07.959Z,3.25
2023-01-03T11:15:07.928Z,2.53
2023-01-03T11:16:07.902Z,3.25
2023-01-03T11:17:07.910Z,3.58
2023-01-03T11:18:07.810Z,3.24
2023-01-03T11:19:07.790Z,2.89
2023-01-03T11:20:07.737Z,3.24
2023-01-03T11:21:07.774Z,3.25
2023-01-03T11:22:07.668Z,3.28
2023-01-03T11:23:07.604Z,3.41
2023-01-03T11:24:07.575Z,3.27
2023-01-03T11:25:07.561Z,2.91
2023-01-03T11:26:07.476Z,3.13
2023-01-03T11:27:07.525Z,2.76
2023-01-03T11:28:10.490Z,3.08
2023-01-03T11:29:08.350Z,2.87
2023-01-03T11:30:07.299Z,2.94
2023-01-03T11:31:07.258Z,2.94
2023-01-03T11:32:07.299Z,2.90
2023-01-03T11:33:07.174Z,3.16
2023-01-03T11:34:07.147Z,3.25
2023-01-03T11:35:24.251Z,2.92
2023-01-03T11:36:08.082Z,2.94
2023-01-03T11:37:07.027Z,2.98
2023-01-03T11:38:06.975Z,3.03
2023-01-03T11:39:12.821Z,2.95
2023-01-03T11:40:07.872Z,2.62
2023-01-03T11:41:06.850Z,3.72
2023-01-03T11:42:06.804Z,2.61
2023-01-03T11:43:06.769Z,2.80
2023-01-03T11:44:06.718Z,3.01
2023-01-03T11:45:06.683Z,2.92
2023-01-03T11:46:06.700Z,2.71
2023-01-03T11:47:06.580Z,2.90
2023-01-03T11:48:06.551Z,2.58
2023-01-03T11:49:06.527Z,3.60
2023-01-03T11:50:06.466Z,2.40
2023-01-03T11:51:06.449Z,3.04
2023-01-03T11:52:06.377Z,3.53
2023-01-03T11:53:06.359Z,3.14
2023-01-03T11:54:06.292Z,2.71
2023-01-03T11:55:06.264Z,3.35
2023-01-03T11:56:06.209Z,3.44
2023-01-03T11:57:06.170Z,2.97
2023-01-03T11:58:06.154Z,3.31
2023-01-03T11:59:06.091Z,2.61
2023-01-03T12:00:06.053Z,2.87
2023-01-03T12:01:06.081Z,2.60
2023-01-03T12:02:06.116Z,3.22
2023-01-03T12:03:06.025Z,2.71
2023-01-03T12:04:05.919Z,3.03
2023-01-03T12:05:05.845Z,2.91
2023-01-03T12:06:05.802Z,3.09
2023-01-03T12:07:45.187Z,3.13
2023-01-03T12:08:06.720Z,2.78
2023-01-03T12:09:05.680Z,2.69
2023-01-03T12:10:05.637Z,2.87
2023-01-03T12:11:05.612Z,2.57
2023-01-03T12:12:05.557Z,2.94
2023-01-03T12:13:05.534Z,3.07
2023-01-03T12:14:05.717Z,2.61
2023-01-03T12:15:05.469Z,2.80
2023-01-03T12:16:05.498Z,2.57
2023-01-03T12:17:05.384Z,2.78
2023-01-03T12:18:05.363Z,2.69
2023-01-03T12:19:11.728Z,2.16
2023-01-03T12:20:06.265Z,2.47
2023-01-03T12:21:05.235Z,2.64
2023-01-03T12:22:05.229Z,2.63
2023-01-03T12:23:05.150Z,2.53
2023-01-03T12:24:05.121Z,2.43
2023-01-03T12:25:05.904Z,2.67
2023-01-03T12:26:05.026Z,2.49
2023-01-03T12:27:05.013Z,2.90
2023-01-03T12:28:04.961Z,2.31
2023-01-03T12:29:04.924Z,3.05
2023-01-03T12:30:04.886Z,2.86
2023-01-03T12:31:04.876Z,2.53
2023-01-03T12:32:04.799Z,3.20
2023-01-03T12:33:04.739Z,2.89
2023-01-03T12:34:04.708Z,2.79
2023-01-03T12:35:04.672Z,3.11
2023-01-03T12:36:04.640Z,2.51
2023-01-03T12:37:04.605Z,2.83
2023-01-03T12:38:04.560Z,2.61
2023-01-03T12:39:04.526Z,3.28
2023-01-03T12:40:04.485Z,2.90
2023-01-03T12:41:04.477Z,2.93
2023-01-03T12:42:04.418Z,2.70
2023-01-03T12:43:04.381Z,2.85
2023-01-03T12:44:04.383Z,2.94
2023-01-03T12:45:04.338Z,2.42
2023-01-03T12:46:10.266Z,3.06
2023-01-03T12:47:05.381Z,2.62
2023-01-03T12:48:04.213Z,2.80
2023-01-03T12:49:04.192Z,2.64
2023-01-03T12:50:04.155Z,2.74
2023-01-03T12:51:04.146Z,3.19
2023-01-03T12:52:04.086Z,2.83
2023-01-03T12:53:04.051Z,2.82
2023-01-03T12:54:04.020Z,2.35
2023-01-03T12:55:03.980Z,3.14
2023-01-03T12:56:03.954Z,2.58
2023-01-03T12:57:03.921Z,2.93
2023-01-03T12:58:03.904Z,2.47
2023-01-03T12:59:03.846Z,2.11
2023-01-03T13:00:03.810Z,2.81
2023-01-03T13:01:03.779Z,2.64
2023-01-03T13:02:03.800Z,3.02
2023-01-03T13:03:03.819Z,2.52
2023-01-03T13:04:03.699Z,2.64
2023-01-03T13:05:03.642Z,2.60
2023-01-03T13:06:03.584Z,2.60
2023-01-03T13:07:03.569Z,2.42
2023-01-03T13:08:03.496Z,2.63
2023-01-03T13:09:03.463Z,2.75
2023-01-03T13:10:03.434Z,2.39
2023-01-03T13:11:03.386Z,2.72
2023-01-03T13:12:03.392Z,2.53
2023-01-03T13:13:03.305Z,2.99
2023-01-03T13:14:03.269Z,2.75
2023-01-03T13:15:03.242Z,2.69
2023-01-03T13:16:03.226Z,2.58
2023-01-03T13:17:03.137Z,2.48
2023-01-03T13:18:03.104Z,2.84
2023-01-03T13:19:03.081Z,2.62
2023-01-03T13:20:03.732Z,2.61
2023-01-03T13:21:02.984Z,2.76
2023-01-03T13:22:02.950Z,2.24
2023-01-03T13:23:02.908Z,2.54
2023-01-03T13:24:02.876Z,2.42
2023-01-03T13:25:02.847Z,3.04
2023-01-03T13:26:02.857Z,2.86
2023-01-03T13:27:02.778Z,2.78
2023-01-03T13:28:02.719Z,2.66
2023-01-03T13:29:02.698Z,2.92
2023-01-03T13:30:02.664Z,2.72
2023-01-03T13:31:02.740Z,2.58
2023-01-03T13:32:02.599Z,2.59
2023-01-03T13:33:02.548Z,2.57
2023-01-03T13:34:02.520Z,2.70
2023-01-03T13:35:02.494Z,2.39
2023-01-03T13:36:02.465Z,2.73
2023-01-03T13:37:02.408Z,2.44
2023-01-03T13:38:02.377Z,2.93
2023-01-03T13:39:02.324Z,2.63
2023-01-03T13:40:02.320Z,2.58
2023-01-03T13:41:19.108Z,2.56
2023-01-03T13:42:03.230Z,2.77
2023-01-03T13:43:02.168Z,2.66
2023-01-03T13:44:02.138Z,2.51
2023-01-03T13:45:02.120Z,2.82
2023-01-03T13:46:02.079Z,2.70
2023-01-03T13:47:02.036Z,2.45
2023-01-03T13:48:01.972Z,2.39
2023-01-03T13:49:01.965Z,2.35
2023-01-03T13:50:01.948Z,2.87
2023-01-03T13:51:01.928Z,2.58
2023-01-03T13:52:01.850Z,2.53
2023-01-03T13:53:01.828Z,2.41
2023-01-03T13:54:01.781Z,2.94
2023-01-03T13:55:01.743Z,3.03
2023-01-03T13:56:01.713Z,2.63
2023-01-03T13:57:01.680Z,2.35
2023-01-03T13:58:01.613Z,2.41
2023-01-03T13:59:01.615Z,2.68
2023-01-03T14:00:01.585Z,3.05
2023-01-03T14:01:05.836Z,2.71
2023-01-03T14:02:01.572Z,2.53
2023-01-03T14:03:01.653Z,3.33
2023-01-03T14:04:01.499Z,2.38
2023-01-03T14:05:01.369Z,3.25
2023-01-03T14:06:01.367Z,2.73
2023-01-03T14:07:01.325Z,2.77
2023-01-03T14:08:01.275Z,2.29
2023-01-03T14:09:01.272Z,2.57
2023-01-03T14:10:01.189Z,2.97
2023-01-03T14:11:01.150Z,2.50
2023-01-03T14:12:01.092Z,2.40
2023-01-03T14:13:01.080Z,3.07
2023-01-03T14:14:01.019Z,2.75
2023-01-03T14:15:00.998Z,2.56
2023-01-03T14:16:01.089Z,2.91
2023-01-03T14:17:00.935Z,2.55
2023-01-03T14:18:00.888Z,2.51
2023-01-03T14:19:00.865Z,2.44
2023-01-03T14:20:00.840Z,2.34
2023-01-03T14:21:00.806Z,2.15
2023-01-03T14:22:21.102Z,2.63
2023-01-03T14:23:11.669Z,2.41
2023-01-03T14:24:02.251Z,2.81
2023-01-03T14:25:00.628Z,2.47
2023-01-03T14:26:00.602Z,2.52
2023-01-03T14:27:00.564Z,2.61
2023-01-03T14:28:00.544Z,2.82
2023-01-03T14:29:00.495Z,2.26
2023-01-03T14:30:00.459Z,3.14
2023-01-03T14:31:00.497Z,2.91
2023-01-03T14:32:00.649Z,2.34
2023-01-03T14:33:00.393Z,2.72
2023-01-03T14:34:00.335Z,2.17
2023-01-03T14:35:00.313Z,2.62
2023-01-03T14:36:00.267Z,2.75
2023-01-03T14:37:00.248Z,2.39
2023-01-03T14:38:06.192Z,2.94
2023-01-03T14:39:01.164Z,2.47
2023-01-03T14:40:00.166Z,2.37
2023-01-03T14:41:00.113Z,2.58
2023-01-03T14:42:00.045Z,2.61
2023-01-03T14:42:59.999Z,2.57
2023-01-03T14:43:59.970Z,2.86
2023-01-03T14:44:59.941Z,2.98
2023-01-03T14:45:59.880Z,2.23
2023-01-03T14:46:59.971Z,2.80
2023-01-03T14:47:59.833Z,2.27
2023-01-03T14:49:03.431Z,2.43
2023-01-03T14:49:59.744Z,2.76
2023-01-03T14:50:59.720Z,2.56
2023-01-03T14:51:59.669Z,2.57
2023-01-03T14:52:59.635Z,2.61
2023-01-03T14:53:59.582Z,2.85
2023-01-03T14:55:03.893Z,3.24
2023-01-03T14:56:00.521Z,2.72
2023-01-03T14:56:59.471Z,2.23
2023-01-03T14:57:59.439Z,2.38
2023-01-03T14:58:59.399Z,2.29
2023-01-03T14:59:59.367Z,2.34
2023-01-03T15:00:59.374Z,2.59
2023-01-03T15:01:59.992Z,2.45
2023-01-03T15:02:59.416Z,2.55
2023-01-03T15:03:59.216Z,2.42
2023-01-03T15:04:59.156Z,2.88
2023-01-03T15:05:59.140Z,2.72
2023-01-03T15:07:03.692Z,1.93
2023-01-03T15:08:00.055Z,2.45
2023-01-03T15:08:59.026Z,2.38
2023-01-03T15:09:58.983Z,2.47
2023-01-03T15:10:58.938Z,2.40
2023-01-03T15:11:58.922Z,3.05
2023-01-03T15:13:04.149Z,2.72
2023-01-03T15:13:59.848Z,2.70
2023-01-03T15:14:58.795Z,2.69
2023-01-03T15:15:58.824Z,2.16
2023-01-03T15:16:58.788Z,2.23
2023-01-03T15:17:58.693Z,2.20
2023-01-03T15:18:58.645Z,2.98
2023-01-03T15:19:58.629Z,2.12
2023-01-03T15:20:58.576Z,2.66
2023-01-03T15:21:58.550Z,2.46
2023-01-03T15:22:58.527Z,2.38
2023-01-03T15:23:58.448Z,2.63
2023-01-03T15:24:58.413Z,2.51
2023-01-03T15:25:58.367Z,2.55
2023-01-03T15:26:58.335Z,2.80
2023-01-03T15:27:58.295Z,2.54
2023-01-03T15:28:58.247Z,2.91
2023-01-03T15:29:58.207Z,2.36
2023-01-03T15:30:58.183Z,2.25
2023-01-03T15:31:58.311Z,2.85
2023-01-03T15:32:58.088Z,2.35
2023-01-03T15:33:58.044Z,2.80
2023-01-03T15:34:58.003Z,3.01
2023-01-03T15:35:57.980Z,2.53
2023-01-03T15:36:57.909Z,2.33
2023-01-03T15:37:57.892Z,2.41
2023-01-03T15:38:57.829Z,2.87
2023-01-03T15:39:58.730Z,2.66
2023-01-03T15:40:57.747Z,2.49
2023-01-03T15:42:19.583Z,2.30
2023-01-03T15:42:58.840Z,2.19
2023-01-03T15:43:57.651Z,2.69
2023-01-03T15:44:57.597Z,3.10
2023-01-03T15:45:57.591Z,2.30
2023-01-03T15:46:57.517Z,2.10
2023-01-03T15:47:57.499Z,2.35
2023-01-03T15:48:57.422Z,2.66
2023-01-03T15:49:57.391Z,2.63
2023-01-03T15:50:57.356Z,2.63
2023-01-03T15:51:57.289Z,2.96
2023-01-03T15:52:57.258Z,2.85